sensor_id;sensor_type;location;lat;lon;timestamp;P1;durP1;ratioP1;P2;durP2;ratioP2
16735;SDS011;17990;49.548;9.730;2024-01-15T00:00:56;30.83;;;11.67;;
16735;SDS011;17990;49.548;9.730;2024-01-15T00:03:24;32.20;;;12.27;;
16735;SDS011;17990;49.548;9.730;2024-01-15T00:05:50;34.80;;;14.07;;
16735;SDS011;17990;49.548;9.730;2024-01-15T00:08:17;31.90;;;12.70;;
16735;SDS011;17990;49.548;9.730;2024-01-15T00:10:44;32.23;;;11.70;;
16735;SDS011;17990;49.548;9.730;2024-01-15T00:13:10;32.27;;;12.77;;
16735;SDS011;17990;49.548;9.730;2024-01-15T00:15:37;29.27;;;12.13;;
16735;SDS011;17990;49.548;9.730;2024-01-15T00:18:04;35.33;;;12.53;;
16735;SDS011;17990;49.548;9.730;2024-01-15T00:20:33;33.87;;;12.97;;
16735;SDS011;17990;49.548;9.730;2024-01-15T00:22:59;33.13;;;11.80;;
16735;SDS011;17990;49.548;9.730;2024-01-15T00:25:26;30.27;;;12.13;;
16735;SDS011;17990;49.548;9.730;2024-01-15T00:27:53;30.23;;;12.57;;
16735;SDS011;17990;49.548;9.730;2024-01-15T00:30:20;33.07;;;11.97;;
16735;SDS011;17990;49.548;9.730;2024-01-15T00:32:46;34.97;;;12.53;;
16735;SDS011;17990;49.548;9.730;2024-01-15T00:35:13;32.90;;;11.53;;
16735;SDS011;17990;49.548;9.730;2024-01-15T00:37:41;29.23;;;11.33;;
16735;SDS011;17990;49.548;9.730;2024-01-15T00:40:08;28.33;;;12.20;;
16735;SDS011;17990;49.548;9.730;2024-01-15T00:42:35;28.70;;;12.17;;
16735;SDS011;17990;49.548;9.730;2024-01-15T00:45:03;31.23;;;12.17;;
16735;SDS011;17990;49.548;9.730;2024-01-15T00:47:32;28.53;;;11.70;;
16735;SDS011;17990;49.548;9.730;2024-01-15T00:49:59;28.03;;;10.50;;
16735;SDS011;17990;49.548;9.730;2024-01-15T00:52:26;30.73;;;11.23;;
16735;SDS011;17990;49.548;9.730;2024-01-15T00:54:54;26.93;;;10.70;;
16735;SDS011;17990;49.548;9.730;2024-01-15T00:57:21;27.30;;;10.87;;
16735;SDS011;17990;49.548;9.730;2024-01-15T00:59:47;31.27;;;12.23;;
16735;SDS011;17990;49.548;9.730;2024-01-15T01:02:14;29.77;;;11.43;;
16735;SDS011;17990;49.548;9.730;2024-01-15T01:04:41;31.90;;;12.03;;
16735;SDS011;17990;49.548;9.730;2024-01-15T01:07:07;29.40;;;10.80;;
16735;SDS011;17990;49.548;9.730;2024-01-15T01:09:34;28.60;;;11.23;;
16735;SDS011;17990;49.548;9.730;2024-01-15T01:12:02;30.60;;;11.90;;
16735;SDS011;17990;49.548;9.730;2024-01-15T01:14:29;31.40;;;11.57;;
16735;SDS011;17990;49.548;9.730;2024-01-15T01:16:56;29.73;;;10.57;;
16735;SDS011;17990;49.548;9.730;2024-01-15T01:19:23;28.20;;;11.30;;
16735;SDS011;17990;49.548;9.730;2024-01-15T01:21:50;29.57;;;11.50;;
16735;SDS011;17990;49.548;9.730;2024-01-15T01:24:17;34.23;;;11.67;;
16735;SDS011;17990;49.548;9.730;2024-01-15T01:26:44;30.60;;;11.93;;
16735;SDS011;17990;49.548;9.730;2024-01-15T01:29:13;27.00;;;10.90;;
16735;SDS011;17990;49.548;9.730;2024-01-15T01:31:42;26.30;;;11.13;;
16735;SDS011;17990;49.548;9.730;2024-01-15T01:34:09;26.43;;;11.13;;
16735;SDS011;17990;49.548;9.730;2024-01-15T01:36:36;26.67;;;10.63;;
16735;SDS011;17990;49.548;9.730;2024-01-15T01:39:02;26.43;;;11.03;;
16735;SDS011;17990;49.548;9.730;2024-01-15T01:41:29;28.50;;;11.40;;
16735;SDS011;17990;49.548;9.730;2024-01-15T01:43:56;26.67;;;11.10;;
16735;SDS011;17990;49.548;9.730;2024-01-15T01:46:24;31.40;;;11.70;;
16735;SDS011;17990;49.548;9.730;2024-01-15T01:48:53;24.93;;;9.93;;
16735;SDS011;17990;49.548;9.730;2024-01-15T01:51:21;27.33;;;10.93;;
16735;SDS011;17990;49.548;9.730;2024-01-15T01:53:49;28.80;;;10.90;;
16735;SDS011;17990;49.548;9.730;2024-01-15T01:56:16;24.43;;;10.53;;
16735;SDS011;17990;49.548;9.730;2024-01-15T01:58:44;25.27;;;10.17;;
16735;SDS011;17990;49.548;9.730;2024-01-15T02:01:12;26.70;;;10.80;;
16735;SDS011;17990;49.548;9.730;2024-01-15T02:03:41;24.70;;;10.10;;
16735;SDS011;17990;49.548;9.730;2024-01-15T02:06:09;22.93;;;10.30;;
16735;SDS011;17990;49.548;9.730;2024-01-15T02:08:36;25.63;;;10.33;;
16735;SDS011;17990;49.548;9.730;2024-01-15T02:11:03;29.27;;;10.50;;
16735;SDS011;17990;49.548;9.730;2024-01-15T02:13:30;23.73;;;9.60;;
16735;SDS011;17990;49.548;9.730;2024-01-15T02:15:57;25.23;;;9.80;;
16735;SDS011;17990;49.548;9.730;2024-01-15T02:18:23;26.30;;;10.03;;
16735;SDS011;17990;49.548;9.730;2024-01-15T02:20:51;24.07;;;9.57;;
16735;SDS011;17990;49.548;9.730;2024-01-15T02:23:19;28.67;;;10.07;;
16735;SDS011;17990;49.548;9.730;2024-01-15T02:25:46;25.03;;;10.23;;
16735;SDS011;17990;49.548;9.730;2024-01-15T02:28:14;25.40;;;9.77;;
16735;SDS011;17990;49.548;9.730;2024-01-15T02:30:42;27.23;;;10.70;;
16735;SDS011;17990;49.548;9.730;2024-01-15T02:33:10;22.20;;;9.03;;
16735;SDS011;17990;49.548;9.730;2024-01-15T02:35:37;29.03;;;11.20;;
16735;SDS011;17990;49.548;9.730;2024-01-15T02:38:04;26.40;;;10.13;;
16735;SDS011;17990;49.548;9.730;2024-01-15T02:40:33;25.97;;;9.67;;
16735;SDS011;17990;49.548;9.730;2024-01-15T02:43:00;27.40;;;10.60;;
16735;SDS011;17990;49.548;9.730;2024-01-15T02:45:27;30.83;;;10.20;;
16735;SDS011;17990;49.548;9.730;2024-01-15T02:47:54;29.80;;;11.53;;
16735;SDS011;17990;49.548;9.730;2024-01-15T02:50:21;26.67;;;10.90;;
16735;SDS011;17990;49.548;9.730;2024-01-15T02:52:47;29.20;;;10.40;;
16735;SDS011;17990;49.548;9.730;2024-01-15T02:55:14;27.50;;;9.83;;
16735;SDS011;17990;49.548;9.730;2024-01-15T02:57:42;24.27;;;10.13;;
16735;SDS011;17990;49.548;9.730;2024-01-15T03:00:09;22.50;;;8.80;;
16735;SDS011;17990;49.548;9.730;2024-01-15T03:02:37;25.13;;;10.17;;
16735;SDS011;17990;49.548;9.730;2024-01-15T03:05:05;25.73;;;10.43;;
16735;SDS011;17990;49.548;9.730;2024-01-15T03:07:32;26.63;;;10.57;;
16735;SDS011;17990;49.548;9.730;2024-01-15T03:09:59;26.80;;;10.83;;
16735;SDS011;17990;49.548;9.730;2024-01-15T03:12:26;28.83;;;9.70;;
16735;SDS011;17990;49.548;9.730;2024-01-15T03:14:54;28.03;;;10.97;;
16735;SDS011;17990;49.548;9.730;2024-01-15T03:17:21;26.10;;;10.40;;
16735;SDS011;17990;49.548;9.730;2024-01-15T03:19:48;25.57;;;10.23;;
16735;SDS011;17990;49.548;9.730;2024-01-15T03:22:15;25.50;;;10.10;;
16735;SDS011;17990;49.548;9.730;2024-01-15T03:24:42;28.03;;;10.80;;
16735;SDS011;17990;49.548;9.730;2024-01-15T03:27:09;27.67;;;11.27;;
16735;SDS011;17990;49.548;9.730;2024-01-15T03:29:36;27.87;;;10.60;;
16735;SDS011;17990;49.548;9.730;2024-01-15T03:32:04;28.67;;;10.37;;
16735;SDS011;17990;49.548;9.730;2024-01-15T03:34:31;29.33;;;11.27;;
16735;SDS011;17990;49.548;9.730;2024-01-15T03:36:58;27.57;;;10.17;;
16735;SDS011;17990;49.548;9.730;2024-01-15T03:39:25;26.50;;;11.13;;
16735;SDS011;17990;49.548;9.730;2024-01-15T03:41:52;24.30;;;10.17;;
16735;SDS011;17990;49.548;9.730;2024-01-15T03:44:18;25.00;;;9.90;;
16735;SDS011;17990;49.548;9.730;2024-01-15T03:46:45;28.80;;;11.43;;
16735;SDS011;17990;49.548;9.730;2024-01-15T03:49:13;27.73;;;11.67;;
16735;SDS011;17990;49.548;9.730;2024-01-15T03:51:40;27.57;;;11.17;;
16735;SDS011;17990;49.548;9.730;2024-01-15T03:54:07;27.47;;;11.03;;
16735;SDS011;17990;49.548;9.730;2024-01-15T03:56:33;27.87;;;11.23;;
16735;SDS011;17990;49.548;9.730;2024-01-15T03:59:00;30.77;;;11.10;;
16735;SDS011;17990;49.548;9.730;2024-01-15T04:01:27;27.00;;;10.47;;
16735;SDS011;17990;49.548;9.730;2024-01-15T04:03:54;27.53;;;10.93;;
16735;SDS011;17990;49.548;9.730;2024-01-15T04:06:22;26.67;;;11.43;;
16735;SDS011;17990;49.548;9.730;2024-01-15T04:08:49;24.57;;;10.50;;
16735;SDS011;17990;49.548;9.730;2024-01-15T04:11:16;26.47;;;10.83;;
16735;SDS011;17990;49.548;9.730;2024-01-15T04:13:43;23.53;;;10.17;;
16735;SDS011;17990;49.548;9.730;2024-01-15T04:16:09;27.03;;;11.70;;
16735;SDS011;17990;49.548;9.730;2024-01-15T04:18:36;29.23;;;11.73;;
16735;SDS011;17990;49.548;9.730;2024-01-15T04:21:03;28.83;;;11.50;;
16735;SDS011;17990;49.548;9.730;2024-01-15T04:23:32;28.97;;;10.87;;
16735;SDS011;17990;49.548;9.730;2024-01-15T04:25:59;31.33;;;10.80;;
16735;SDS011;17990;49.548;9.730;2024-01-15T04:28:26;23.70;;;10.77;;
16735;SDS011;17990;49.548;9.730;2024-01-15T04:30:52;29.27;;;10.80;;
16735;SDS011;17990;49.548;9.730;2024-01-15T04:33:19;26.67;;;10.23;;
16735;SDS011;17990;49.548;9.730;2024-01-15T04:35:46;25.13;;;10.70;;
16735;SDS011;17990;49.548;9.730;2024-01-15T04:38:12;23.80;;;10.53;;
16735;SDS011;17990;49.548;9.730;2024-01-15T04:40:40;21.00;;;8.87;;
16735;SDS011;17990;49.548;9.730;2024-01-15T04:43:07;24.60;;;10.57;;
16735;SDS011;17990;49.548;9.730;2024-01-15T04:45:34;24.80;;;10.37;;
16735;SDS011;17990;49.548;9.730;2024-01-15T04:48:01;23.83;;;8.83;;
16735;SDS011;17990;49.548;9.730;2024-01-15T04:50:28;22.90;;;9.27;;
16735;SDS011;17990;49.548;9.730;2024-01-15T04:52:54;24.80;;;10.63;;
16735;SDS011;17990;49.548;9.730;2024-01-15T04:55:21;23.57;;;9.40;;
16735;SDS011;17990;49.548;9.730;2024-01-15T04:57:49;24.17;;;11.20;;
16735;SDS011;17990;49.548;9.730;2024-01-15T05:00:16;23.73;;;10.27;;
16735;SDS011;17990;49.548;9.730;2024-01-15T05:02:43;18.53;;;8.93;;
16735;SDS011;17990;49.548;9.730;2024-01-15T05:05:10;22.70;;;10.67;;
16735;SDS011;17990;49.548;9.730;2024-01-15T05:07:37;25.70;;;9.87;;
16735;SDS011;17990;49.548;9.730;2024-01-15T05:10:04;25.27;;;10.50;;
16735;SDS011;17990;49.548;9.730;2024-01-15T05:12:32;36.53;;;17.03;;
16735;SDS011;17990;49.548;9.730;2024-01-15T05:15:00;25.93;;;10.40;;
16735;SDS011;17990;49.548;9.730;2024-01-15T05:17:27;26.00;;;10.93;;
16735;SDS011;17990;49.548;9.730;2024-01-15T05:19:54;27.63;;;10.30;;
16735;SDS011;17990;49.548;9.730;2024-01-15T05:22:20;28.30;;;10.73;;
16735;SDS011;17990;49.548;9.730;2024-01-15T05:24:49;23.53;;;10.83;;
16735;SDS011;17990;49.548;9.730;2024-01-15T05:27:16;24.47;;;9.27;;
16735;SDS011;17990;49.548;9.730;2024-01-15T05:29:43;22.63;;;9.67;;
16735;SDS011;17990;49.548;9.730;2024-01-15T05:32:11;19.43;;;8.30;;
16735;SDS011;17990;49.548;9.730;2024-01-15T05:34:38;23.07;;;10.03;;
16735;SDS011;17990;49.548;9.730;2024-01-15T05:37:04;26.20;;;9.77;;
16735;SDS011;17990;49.548;9.730;2024-01-15T05:39:31;27.27;;;10.67;;
16735;SDS011;17990;49.548;9.730;2024-01-15T05:41:58;22.30;;;10.43;;
16735;SDS011;17990;49.548;9.730;2024-01-15T05:44:25;21.83;;;9.43;;
16735;SDS011;17990;49.548;9.730;2024-01-15T05:46:53;23.97;;;10.97;;
16735;SDS011;17990;49.548;9.730;2024-01-15T05:49:21;24.83;;;10.13;;
16735;SDS011;17990;49.548;9.730;2024-01-15T05:51:48;23.30;;;10.03;;
16735;SDS011;17990;49.548;9.730;2024-01-15T05:54:15;24.13;;;8.97;;
16735;SDS011;17990;49.548;9.730;2024-01-15T05:56:43;23.53;;;10.03;;
16735;SDS011;17990;49.548;9.730;2024-01-15T05:59:10;20.70;;;9.70;;
16735;SDS011;17990;49.548;9.730;2024-01-15T06:01:37;24.37;;;9.97;;
16735;SDS011;17990;49.548;9.730;2024-01-15T06:04:03;24.30;;;10.43;;
16735;SDS011;17990;49.548;9.730;2024-01-15T06:06:33;19.33;;;9.33;;
16735;SDS011;17990;49.548;9.730;2024-01-15T06:08:59;24.43;;;9.33;;
16735;SDS011;17990;49.548;9.730;2024-01-15T06:11:30;22.50;;;9.17;;
16735;SDS011;17990;49.548;9.730;2024-01-15T06:13:57;20.43;;;9.13;;
16735;SDS011;17990;49.548;9.730;2024-01-15T06:16:23;19.20;;;8.70;;
16735;SDS011;17990;49.548;9.730;2024-01-15T06:18:50;21.50;;;9.63;;
16735;SDS011;17990;49.548;9.730;2024-01-15T06:21:17;21.70;;;9.73;;
16735;SDS011;17990;49.548;9.730;2024-01-15T06:23:45;21.37;;;8.87;;
16735;SDS011;17990;49.548;9.730;2024-01-15T06:26:12;22.10;;;9.20;;
16735;SDS011;17990;49.548;9.730;2024-01-15T06:28:38;21.87;;;9.27;;
16735;SDS011;17990;49.548;9.730;2024-01-15T06:31:06;21.33;;;9.13;;
16735;SDS011;17990;49.548;9.730;2024-01-15T06:33:33;23.83;;;9.03;;
16735;SDS011;17990;49.548;9.730;2024-01-15T06:35:59;21.33;;;9.70;;
16735;SDS011;17990;49.548;9.730;2024-01-15T06:38:26;20.77;;;9.57;;
16735;SDS011;17990;49.548;9.730;2024-01-15T06:40:54;21.47;;;9.90;;
16735;SDS011;17990;49.548;9.730;2024-01-15T06:43:21;24.03;;;9.53;;
16735;SDS011;17990;49.548;9.730;2024-01-15T06:45:48;24.13;;;10.33;;
16735;SDS011;17990;49.548;9.730;2024-01-15T06:48:15;23.73;;;9.60;;
16735;SDS011;17990;49.548;9.730;2024-01-15T06:50:42;22.70;;;10.07;;
16735;SDS011;17990;49.548;9.730;2024-01-15T06:53:08;24.67;;;9.43;;
16735;SDS011;17990;49.548;9.730;2024-01-15T06:55:35;25.03;;;10.07;;
16735;SDS011;17990;49.548;9.730;2024-01-15T06:58:03;22.87;;;9.73;;
16735;SDS011;17990;49.548;9.730;2024-01-15T07:00:30;22.13;;;8.87;;
16735;SDS011;17990;49.548;9.730;2024-01-15T07:02:57;26.23;;;10.10;;
16735;SDS011;17990;49.548;9.730;2024-01-15T07:05:24;22.00;;;10.00;;
16735;SDS011;17990;49.548;9.730;2024-01-15T07:07:50;21.37;;;9.47;;
16735;SDS011;17990;49.548;9.730;2024-01-15T07:10:17;22.73;;;9.83;;
16735;SDS011;17990;49.548;9.730;2024-01-15T07:12:44;21.60;;;9.20;;
16735;SDS011;17990;49.548;9.730;2024-01-15T07:15:12;20.87;;;9.17;;
16735;SDS011;17990;49.548;9.730;2024-01-15T07:17:39;21.10;;;8.70;;
16735;SDS011;17990;49.548;9.730;2024-01-15T07:20:06;20.63;;;8.93;;
16735;SDS011;17990;49.548;9.730;2024-01-15T07:22:34;19.30;;;8.30;;
16735;SDS011;17990;49.548;9.730;2024-01-15T07:25:01;21.27;;;9.50;;
16735;SDS011;17990;49.548;9.730;2024-01-15T07:27:29;21.57;;;9.00;;
16735;SDS011;17990;49.548;9.730;2024-01-15T07:29:56;18.87;;;8.70;;
16735;SDS011;17990;49.548;9.730;2024-01-15T07:32:24;22.37;;;9.87;;
16735;SDS011;17990;49.548;9.730;2024-01-15T07:34:51;20.13;;;9.00;;
16735;SDS011;17990;49.548;9.730;2024-01-15T07:37:18;18.47;;;9.03;;
16735;SDS011;17990;49.548;9.730;2024-01-15T07:39:44;21.53;;;9.30;;
16735;SDS011;17990;49.548;9.730;2024-01-15T07:42:11;22.63;;;8.93;;
16735;SDS011;17990;49.548;9.730;2024-01-15T07:44:38;22.67;;;9.60;;
16735;SDS011;17990;49.548;9.730;2024-01-15T07:47:05;22.03;;;9.13;;
16735;SDS011;17990;49.548;9.730;2024-01-15T07:49:33;21.90;;;9.10;;
16735;SDS011;17990;49.548;9.730;2024-01-15T07:51:59;21.20;;;9.40;;
16735;SDS011;17990;49.548;9.730;2024-01-15T07:54:27;22.50;;;8.90;;
16735;SDS011;17990;49.548;9.730;2024-01-15T07:56:54;20.67;;;9.13;;
16735;SDS011;17990;49.548;9.730;2024-01-15T07:59:23;23.67;;;9.47;;
16735;SDS011;17990;49.548;9.730;2024-01-15T08:01:50;19.77;;;9.83;;
16735;SDS011;17990;49.548;9.730;2024-01-15T08:04:17;21.37;;;9.20;;
16735;SDS011;17990;49.548;9.730;2024-01-15T08:06:45;19.50;;;9.37;;
16735;SDS011;17990;49.548;9.730;2024-01-15T08:09:12;17.57;;;8.57;;
16735;SDS011;17990;49.548;9.730;2024-01-15T08:11:39;20.97;;;9.67;;
16735;SDS011;17990;49.548;9.730;2024-01-15T08:14:07;21.27;;;9.47;;
16735;SDS011;17990;49.548;9.730;2024-01-15T08:16:34;17.20;;;8.73;;
16735;SDS011;17990;49.548;9.730;2024-01-15T08:19:01;17.63;;;8.77;;
16735;SDS011;17990;49.548;9.730;2024-01-15T08:21:28;19.03;;;9.27;;
16735;SDS011;17990;49.548;9.730;2024-01-15T08:23:56;19.10;;;9.43;;
16735;SDS011;17990;49.548;9.730;2024-01-15T08:26:23;19.97;;;8.73;;
16735;SDS011;17990;49.548;9.730;2024-01-15T08:28:50;19.80;;;9.17;;
16735;SDS011;17990;49.548;9.730;2024-01-15T08:31:17;18.07;;;8.13;;
16735;SDS011;17990;49.548;9.730;2024-01-15T08:33:43;20.47;;;9.03;;
16735;SDS011;17990;49.548;9.730;2024-01-15T08:36:11;20.20;;;9.80;;
16735;SDS011;17990;49.548;9.730;2024-01-15T08:38:37;19.27;;;8.90;;
16735;SDS011;17990;49.548;9.730;2024-01-15T08:41:05;19.07;;;9.07;;
16735;SDS011;17990;49.548;9.730;2024-01-15T08:43:33;20.50;;;9.33;;
16735;SDS011;17990;49.548;9.730;2024-01-15T08:46:00;19.17;;;9.10;;
16735;SDS011;17990;49.548;9.730;2024-01-15T08:48:27;22.63;;;9.70;;
16735;SDS011;17990;49.548;9.730;2024-01-15T08:50:54;17.87;;;9.67;;
16735;SDS011;17990;49.548;9.730;2024-01-15T08:53:21;20.70;;;9.03;;
16735;SDS011;17990;49.548;9.730;2024-01-15T08:55:48;18.70;;;8.87;;
16735;SDS011;17990;49.548;9.730;2024-01-15T08:58:16;19.43;;;8.63;;
16735;SDS011;17990;49.548;9.730;2024-01-15T09:00:42;17.67;;;8.47;;
16735;SDS011;17990;49.548;9.730;2024-01-15T09:03:09;20.30;;;9.77;;
16735;SDS011;17990;49.548;9.730;2024-01-15T09:05:36;21.43;;;9.33;;
16735;SDS011;17990;49.548;9.730;2024-01-15T09:08:03;20.47;;;9.93;;
16735;SDS011;17990;49.548;9.730;2024-01-15T09:10:30;22.47;;;10.33;;
16735;SDS011;17990;49.548;9.730;2024-01-15T09:12:57;17.40;;;9.17;;
16735;SDS011;17990;49.548;9.730;2024-01-15T09:15:26;20.93;;;8.60;;
16735;SDS011;17990;49.548;9.730;2024-01-15T09:17:53;20.33;;;8.87;;
16735;SDS011;17990;49.548;9.730;2024-01-15T09:20:22;18.13;;;9.20;;
16735;SDS011;17990;49.548;9.730;2024-01-15T09:22:49;18.90;;;8.60;;
16735;SDS011;17990;49.548;9.730;2024-01-15T09:25:15;23.87;;;9.70;;
16735;SDS011;17990;49.548;9.730;2024-01-15T09:27:42;22.73;;;8.77;;
16735;SDS011;17990;49.548;9.730;2024-01-15T09:30:09;23.57;;;9.83;;
16735;SDS011;17990;49.548;9.730;2024-01-15T09:32:38;19.87;;;9.93;;
16735;SDS011;17990;49.548;9.730;2024-01-15T09:35:05;20.27;;;9.40;;
16735;SDS011;17990;49.548;9.730;2024-01-15T09:37:32;18.27;;;9.00;;
16735;SDS011;17990;49.548;9.730;2024-01-15T09:40:00;18.40;;;8.17;;
16735;SDS011;17990;49.548;9.730;2024-01-15T09:42:27;22.00;;;9.97;;
16735;SDS011;17990;49.548;9.730;2024-01-15T09:44:55;22.60;;;9.40;;
16735;SDS011;17990;49.548;9.730;2024-01-15T09:47:21;18.20;;;8.60;;
16735;SDS011;17990;49.548;9.730;2024-01-15T09:49:51;19.23;;;9.33;;
16735;SDS011;17990;49.548;9.730;2024-01-15T09:52:18;18.13;;;9.07;;
16735;SDS011;17990;49.548;9.730;2024-01-15T09:54:45;17.67;;;8.23;;
16735;SDS011;17990;49.548;9.730;2024-01-15T09:57:13;14.37;;;7.43;;
16735;SDS011;17990;49.548;9.730;2024-01-15T09:59:40;14.50;;;7.73;;
16735;SDS011;17990;49.548;9.730;2024-01-15T10:02:09;17.73;;;8.83;;
16735;SDS011;17990;49.548;9.730;2024-01-15T10:04:43;14.93;;;7.83;;
16735;SDS011;17990;49.548;9.730;2024-01-15T10:07:11;16.70;;;8.33;;
16735;SDS011;17990;49.548;9.730;2024-01-15T10:09:41;16.57;;;8.37;;
16735;SDS011;17990;49.548;9.730;2024-01-15T10:12:07;16.60;;;8.47;;
16735;SDS011;17990;49.548;9.730;2024-01-15T10:14:36;15.10;;;7.93;;
16735;SDS011;17990;49.548;9.730;2024-01-15T10:17:10;15.77;;;8.13;;
16735;SDS011;17990;49.548;9.730;2024-01-15T10:19:39;16.87;;;8.37;;
16735;SDS011;17990;49.548;9.730;2024-01-15T10:22:06;17.40;;;8.00;;
16735;SDS011;17990;49.548;9.730;2024-01-15T10:24:35;16.47;;;7.47;;
16735;SDS011;17990;49.548;9.730;2024-01-15T10:27:04;14.57;;;7.20;;
16735;SDS011;17990;49.548;9.730;2024-01-15T10:29:32;16.97;;;8.07;;
16735;SDS011;17990;49.548;9.730;2024-01-15T10:31:58;17.17;;;8.10;;
16735;SDS011;17990;49.548;9.730;2024-01-15T10:34:26;15.50;;;7.77;;
16735;SDS011;17990;49.548;9.730;2024-01-15T10:36:53;13.20;;;6.77;;
16735;SDS011;17990;49.548;9.730;2024-01-15T10:39:21;15.80;;;6.33;;
16735;SDS011;17990;49.548;9.730;2024-01-15T10:41:49;14.03;;;6.70;;
16735;SDS011;17990;49.548;9.730;2024-01-15T10:44:16;12.90;;;6.67;;
16735;SDS011;17990;49.548;9.730;2024-01-15T10:46:43;12.87;;;6.90;;
16735;SDS011;17990;49.548;9.730;2024-01-15T10:49:12;15.97;;;7.00;;
16735;SDS011;17990;49.548;9.730;2024-01-15T10:51:39;11.23;;;5.90;;
16735;SDS011;17990;49.548;9.730;2024-01-15T10:54:08;16.70;;;7.03;;
16735;SDS011;17990;49.548;9.730;2024-01-15T10:56:36;11.97;;;6.90;;
16735;SDS011;17990;49.548;9.730;2024-01-15T10:59:06;11.00;;;5.80;;
16735;SDS011;17990;49.548;9.730;2024-01-15T11:01:35;12.33;;;6.57;;
16735;SDS011;17990;49.548;9.730;2024-01-15T11:04:03;11.47;;;6.57;;
16735;SDS011;17990;49.548;9.730;2024-01-15T11:06:40;11.07;;;6.03;;
16735;SDS011;17990;49.548;9.730;2024-01-15T11:09:08;13.33;;;6.97;;
16735;SDS011;17990;49.548;9.730;2024-01-15T11:11:35;10.13;;;6.07;;
16735;SDS011;17990;49.548;9.730;2024-01-15T11:14:02;13.20;;;6.57;;
16735;SDS011;17990;49.548;9.730;2024-01-15T11:16:53;10.70;;;6.23;;
16735;SDS011;17990;49.548;9.730;2024-01-15T11:19:21;15.47;;;6.87;;
16735;SDS011;17990;49.548;9.730;2024-01-15T11:21:48;12.13;;;6.90;;
16735;SDS011;17990;49.548;9.730;2024-01-15T11:24:34;12.23;;;6.60;;
16735;SDS011;17990;49.548;9.730;2024-01-15T11:27:02;12.20;;;6.53;;
16735;SDS011;17990;49.548;9.730;2024-01-15T11:29:30;12.77;;;6.20;;
16735;SDS011;17990;49.548;9.730;2024-01-15T11:32:01;14.00;;;6.60;;
16735;SDS011;17990;49.548;9.730;2024-01-15T11:37:19;11.43;;;6.57;;
16735;SDS011;17990;49.548;9.730;2024-01-15T11:39:49;11.13;;;6.50;;
16735;SDS011;17990;49.548;9.730;2024-01-15T11:42:18;11.27;;;5.67;;
16735;SDS011;17990;49.548;9.730;2024-01-15T11:44:46;16.50;;;6.60;;
16735;SDS011;17990;49.548;9.730;2024-01-15T11:47:14;12.13;;;6.20;;
16735;SDS011;17990;49.548;9.730;2024-01-15T11:50:00;10.53;;;5.93;;
16735;SDS011;17990;49.548;9.730;2024-01-15T11:52:31;10.13;;;5.83;;
16735;SDS011;17990;49.548;9.730;2024-01-15T11:55:09;10.93;;;5.90;;
16735;SDS011;17990;49.548;9.730;2024-01-15T11:57:40;13.43;;;6.93;;
16735;SDS011;17990;49.548;9.730;2024-01-15T12:00:09;10.13;;;6.13;;
16735;SDS011;17990;49.548;9.730;2024-01-15T12:02:39;11.03;;;5.60;;
16735;SDS011;17990;49.548;9.730;2024-01-15T12:05:07;10.20;;;6.07;;
16735;SDS011;17990;49.548;9.730;2024-01-15T12:07:34;9.97;;;5.43;;
16735;SDS011;17990;49.548;9.730;2024-01-15T12:10:02;11.10;;;5.70;;
16735;SDS011;17990;49.548;9.730;2024-01-15T12:12:32;10.13;;;5.03;;
16735;SDS011;17990;49.548;9.730;2024-01-15T12:15:07;9.93;;;5.40;;
16735;SDS011;17990;49.548;9.730;2024-01-15T12:17:34;12.03;;;5.80;;
16735;SDS011;17990;49.548;9.730;2024-01-15T12:20:02;8.53;;;5.23;;
16735;SDS011;17990;49.548;9.730;2024-01-15T12:22:30;10.87;;;6.17;;
16735;SDS011;17990;49.548;9.730;2024-01-15T12:24:57;11.43;;;5.77;;
16735;SDS011;17990;49.548;9.730;2024-01-15T12:27:24;9.37;;;5.40;;
16735;SDS011;17990;49.548;9.730;2024-01-15T12:29:52;12.50;;;6.33;;
16735;SDS011;17990;49.548;9.730;2024-01-15T12:32:19;12.20;;;5.53;;
16735;SDS011;17990;49.548;9.730;2024-01-15T12:34:46;13.73;;;6.33;;
16735;SDS011;17990;49.548;9.730;2024-01-15T12:37:17;12.17;;;5.70;;
16735;SDS011;17990;49.548;9.730;2024-01-15T12:39:45;10.57;;;5.67;;
16735;SDS011;17990;49.548;9.730;2024-01-15T12:42:13;9.97;;;5.20;;
16735;SDS011;17990;49.548;9.730;2024-01-15T12:44:40;14.60;;;6.20;;
16735;SDS011;17990;49.548;9.730;2024-01-15T12:47:07;11.07;;;6.40;;
16735;SDS011;17990;49.548;9.730;2024-01-15T12:49:35;13.33;;;5.87;;
16735;SDS011;17990;49.548;9.730;2024-01-15T12:52:02;10.50;;;5.13;;
16735;SDS011;17990;49.548;9.730;2024-01-15T12:54:31;13.83;;;5.63;;
16735;SDS011;17990;49.548;9.730;2024-01-15T12:56:57;8.80;;;4.70;;
16735;SDS011;17990;49.548;9.730;2024-01-15T12:59:24;9.63;;;5.13;;
16735;SDS011;17990;49.548;9.730;2024-01-15T13:01:51;10.80;;;5.13;;
16735;SDS011;17990;49.548;9.730;2024-01-15T13:04:21;10.27;;;4.33;;
16735;SDS011;17990;49.548;9.730;2024-01-15T13:06:48;12.67;;;4.50;;
16735;SDS011;17990;49.548;9.730;2024-01-15T13:09:15;12.70;;;4.20;;
16735;SDS011;17990;49.548;9.730;2024-01-15T13:11:43;8.00;;;4.33;;
16735;SDS011;17990;49.548;9.730;2024-01-15T13:14:10;5.93;;;4.00;;
16735;SDS011;17990;49.548;9.730;2024-01-15T13:16:38;7.83;;;4.30;;
16735;SDS011;17990;49.548;9.730;2024-01-15T13:19:06;6.17;;;3.70;;
16735;SDS011;17990;49.548;9.730;2024-01-15T13:21:34;11.63;;;3.87;;
16735;SDS011;17990;49.548;9.730;2024-01-15T13:24:01;5.73;;;3.60;;
16735;SDS011;17990;49.548;9.730;2024-01-15T13:26:30;7.00;;;3.47;;
16735;SDS011;17990;49.548;9.730;2024-01-15T13:28:58;5.47;;;3.23;;
16735;SDS011;17990;49.548;9.730;2024-01-15T13:31:25;6.30;;;3.40;;
16735;SDS011;17990;49.548;9.730;2024-01-15T13:33:52;5.97;;;3.80;;
16735;SDS011;17990;49.548;9.730;2024-01-15T13:36:20;7.17;;;3.53;;
16735;SDS011;17990;49.548;9.730;2024-01-15T13:38:48;4.83;;;2.90;;
16735;SDS011;17990;49.548;9.730;2024-01-15T13:41:14;5.50;;;3.10;;
16735;SDS011;17990;49.548;9.730;2024-01-15T13:43:43;5.90;;;3.20;;
16735;SDS011;17990;49.548;9.730;2024-01-15T13:46:11;5.43;;;3.00;;
16735;SDS011;17990;49.548;9.730;2024-01-15T13:48:38;6.27;;;3.07;;
16735;SDS011;17990;49.548;9.730;2024-01-15T13:51:05;4.57;;;2.80;;
16735;SDS011;17990;49.548;9.730;2024-01-15T13:53:31;5.50;;;3.00;;
16735;SDS011;17990;49.548;9.730;2024-01-15T13:55:58;7.20;;;2.93;;
16735;SDS011;17990;49.548;9.730;2024-01-15T13:58:25;5.10;;;3.17;;
16735;SDS011;17990;49.548;9.730;2024-01-15T14:00:52;6.67;;;4.07;;
16735;SDS011;17990;49.548;9.730;2024-01-15T14:03:20;5.77;;;3.27;;
16735;SDS011;17990;49.548;9.730;2024-01-15T14:05:46;5.27;;;3.23;;
16735;SDS011;17990;49.548;9.730;2024-01-15T14:08:13;6.87;;;3.30;;
16735;SDS011;17990;49.548;9.730;2024-01-15T14:10:40;7.03;;;3.43;;
16735;SDS011;17990;49.548;9.730;2024-01-15T14:13:06;5.50;;;3.40;;
16735;SDS011;17990;49.548;9.730;2024-01-15T14:15:33;5.77;;;3.27;;
16735;SDS011;17990;49.548;9.730;2024-01-15T14:18:00;7.07;;;3.57;;
16735;SDS011;17990;49.548;9.730;2024-01-15T14:20:28;5.70;;;2.67;;
16735;SDS011;17990;49.548;9.730;2024-01-15T14:22:55;9.50;;;3.80;;
16735;SDS011;17990;49.548;9.730;2024-01-15T14:25:22;5.37;;;3.57;;
16735;SDS011;17990;49.548;9.730;2024-01-15T14:27:50;7.93;;;4.13;;
16735;SDS011;17990;49.548;9.730;2024-01-15T14:30:16;9.23;;;3.50;;
16735;SDS011;17990;49.548;9.730;2024-01-15T14:32:43;7.33;;;3.80;;
16735;SDS011;17990;49.548;9.730;2024-01-15T14:35:10;7.40;;;4.40;;